Weather at La Fe de Cojedes Airport

Public forecast

Using degrees Celsius for public forecast. Weather courtesy of forecast.io.

Closest aviation weather report (METAR) to La Fe de Cojedes Airport

Report is more than 6 hours old.

Closest report is Arturo Michelena International Airport, 40.6 nm (75.1 km) N.

2024/04/21 20:00 (retrieved 17 hours ago)

SVVA 212000Z /////KT 9999 FEW013CBSW BKN016 31/23 Q1010

Closest aviation forecast (TAF) to La Fe de Cojedes Airport

Forecast is more than 12 hours old.

Closest forecast is Arturo Michelena International Airport, 40.6 nm (75.1 km) N.

2024/04/20 12:00 (retrieved 2 days ago)

TAF TAF SVVA 201052Z 2012/2112 04002KT 9999 SCT016 TX31/2018Z TN21/2109Z TEMPO 2016/2020 11003KT 9999 SCT016 TEMPO 2023/2103 07005KT 9999 BKN016